sensor_id;sensor_type;location;lat;lon;timestamp;P1;durP1;ratioP1;P2;durP2;ratioP2
1000;SDS011;489;47.806;12.858;2023-09-12T00:00:45;11.43;;;10.50;;
1000;SDS011;489;47.806;12.858;2023-09-12T00:02:47;10.63;;;9.70;;
1000;SDS011;489;47.806;12.858;2023-09-12T00:04:49;10.90;;;9.90;;
1000;SDS011;489;47.806;12.858;2023-09-12T00:06:51;10.97;;;10.00;;
1000;SDS011;489;47.806;12.858;2023-09-12T00:08:52;11.03;;;10.13;;
1000;SDS011;489;47.806;12.858;2023-09-12T00:10:59;11.20;;;10.30;;
1000;SDS011;489;47.806;12.858;2023-09-12T00:13:02;10.70;;;9.80;;
1000;SDS011;489;47.806;12.858;2023-09-12T00:15:04;11.27;;;10.27;;
1000;SDS011;489;47.806;12.858;2023-09-12T00:17:08;11.07;;;9.97;;
1000;SDS011;489;47.806;12.858;2023-09-12T00:19:09;11.50;;;10.40;;
1000;SDS011;489;47.806;12.858;2023-09-12T00:21:11;10.63;;;9.73;;
1000;SDS011;489;47.806;12.858;2023-09-12T00:23:13;10.80;;;9.90;;
1000;SDS011;489;47.806;12.858;2023-09-12T00:25:15;10.80;;;9.90;;
1000;SDS011;489;47.806;12.858;2023-09-12T00:27:19;11.00;;;10.00;;
1000;SDS011;489;47.806;12.858;2023-09-12T00:29:21;10.70;;;9.80;;
1000;SDS011;489;47.806;12.858;2023-09-12T00:31:23;11.40;;;9.97;;
1000;SDS011;489;47.806;12.858;2023-09-12T00:33:25;10.13;;;9.23;;
1000;SDS011;489;47.806;12.858;2023-09-12T00:35:26;11.90;;;10.80;;
1000;SDS011;489;47.806;12.858;2023-09-12T00:37:28;10.73;;;9.73;;
1000;SDS011;489;47.806;12.858;2023-09-12T00:39:30;10.20;;;9.30;;
1000;SDS011;489;47.806;12.858;2023-09-12T00:41:32;11.43;;;10.43;;
1000;SDS011;489;47.806;12.858;2023-09-12T00:43:35;11.07;;;10.07;;
1000;SDS011;489;47.806;12.858;2023-09-12T00:45:37;10.37;;;9.37;;
1000;SDS011;489;47.806;12.858;2023-09-12T00:47:40;10.80;;;9.93;;
1000;SDS011;489;47.806;12.858;2023-09-12T00:49:42;11.13;;;10.13;;
1000;SDS011;489;47.806;12.858;2023-09-12T00:51:43;10.60;;;9.70;;
1000;SDS011;489;47.806;12.858;2023-09-12T00:53:46;10.10;;;9.30;;
1000;SDS011;489;47.806;12.858;2023-09-12T00:55:50;11.23;;;10.23;;
1000;SDS011;489;47.806;12.858;2023-09-12T00:57:56;11.50;;;10.40;;
1000;SDS011;489;47.806;12.858;2023-09-12T00:59:58;10.60;;;9.70;;
1000;SDS011;489;47.806;12.858;2023-09-12T01:02:01;10.07;;;9.27;;
1000;SDS011;489;47.806;12.858;2023-09-12T01:04:04;11.30;;;10.30;;
1000;SDS011;489;47.806;12.858;2023-09-12T01:06:06;11.10;;;10.20;;
1000;SDS011;489;47.806;12.858;2023-09-12T01:08:08;11.23;;;10.17;;
1000;SDS011;489;47.806;12.858;2023-09-12T01:10:11;11.20;;;10.10;;
1000;SDS011;489;47.806;12.858;2023-09-12T01:12:13;10.60;;;9.60;;
1000;SDS011;489;47.806;12.858;2023-09-12T01:14:16;11.70;;;10.70;;
1000;SDS011;489;47.806;12.858;2023-09-12T01:16:19;11.07;;;9.93;;
1000;SDS011;489;47.806;12.858;2023-09-12T01:18:21;11.03;;;10.07;;
1000;SDS011;489;47.806;12.858;2023-09-12T01:20:24;10.97;;;10.07;;
1000;SDS011;489;47.806;12.858;2023-09-12T01:22:34;11.70;;;10.70;;
1000;SDS011;489;47.806;12.858;2023-09-12T01:27:42;10.63;;;9.73;;
1000;SDS011;489;47.806;12.858;2023-09-12T01:30:06;11.90;;;10.90;;
1000;SDS011;489;47.806;12.858;2023-09-12T01:32:09;11.07;;;10.17;;
1000;SDS011;489;47.806;12.858;2023-09-12T01:34:12;11.23;;;10.13;;
1000;SDS011;489;47.806;12.858;2023-09-12T01:36:14;11.83;;;10.70;;
1000;SDS011;489;47.806;12.858;2023-09-12T01:38:16;10.83;;;9.93;;
1000;SDS011;489;47.806;12.858;2023-09-12T01:40:17;10.60;;;9.70;;
1000;SDS011;489;47.806;12.858;2023-09-12T01:42:21;10.83;;;9.73;;
1000;SDS011;489;47.806;12.858;2023-09-12T01:44:25;11.30;;;10.30;;
1000;SDS011;489;47.806;12.858;2023-09-12T01:46:29;10.50;;;9.50;;
1000;SDS011;489;47.806;12.858;2023-09-12T01:48:33;11.00;;;9.90;;
1000;SDS011;489;47.806;12.858;2023-09-12T01:50:35;11.67;;;10.63;;
1000;SDS011;489;47.806;12.858;2023-09-12T01:52:37;11.77;;;10.67;;
1000;SDS011;489;47.806;12.858;2023-09-12T01:54:39;11.93;;;10.83;;
1000;SDS011;489;47.806;12.858;2023-09-12T01:56:42;12.73;;;11.53;;
1000;SDS011;489;47.806;12.858;2023-09-12T01:58:44;10.97;;;9.97;;
1000;SDS011;489;47.806;12.858;2023-09-12T02:00:48;10.77;;;9.87;;
1000;SDS011;489;47.806;12.858;2023-09-12T02:02:50;10.80;;;9.90;;
1000;SDS011;489;47.806;12.858;2023-09-12T02:04:54;11.50;;;10.50;;
1000;SDS011;489;47.806;12.858;2023-09-12T02:07:01;12.43;;;11.07;;
1000;SDS011;489;47.806;12.858;2023-09-12T02:09:03;11.17;;;10.17;;
1000;SDS011;489;47.806;12.858;2023-09-12T02:11:05;11.10;;;10.10;;
1000;SDS011;489;47.806;12.858;2023-09-12T02:13:07;11.87;;;10.77;;
1000;SDS011;489;47.806;12.858;2023-09-12T02:15:10;11.40;;;10.40;;
1000;SDS011;489;47.806;12.858;2023-09-12T02:17:14;11.10;;;10.10;;
1000;SDS011;489;47.806;12.858;2023-09-12T02:19:16;11.17;;;10.07;;
1000;SDS011;489;47.806;12.858;2023-09-12T02:21:18;11.30;;;10.20;;
1000;SDS011;489;47.806;12.858;2023-09-12T02:23:20;11.13;;;10.13;;
1000;SDS011;489;47.806;12.858;2023-09-12T02:25:22;11.57;;;10.50;;
1000;SDS011;489;47.806;12.858;2023-09-12T02:27:23;11.63;;;10.53;;
1000;SDS011;489;47.806;12.858;2023-09-12T02:29:24;11.77;;;10.63;;
1000;SDS011;489;47.806;12.858;2023-09-12T02:31:26;10.77;;;9.87;;
1000;SDS011;489;47.806;12.858;2023-09-12T02:33:30;10.60;;;9.60;;
1000;SDS011;489;47.806;12.858;2023-09-12T02:35:32;12.10;;;10.90;;
1000;SDS011;489;47.806;12.858;2023-09-12T02:37:34;12.00;;;10.90;;
1000;SDS011;489;47.806;12.858;2023-09-12T02:39:37;11.70;;;10.70;;
1000;SDS011;489;47.806;12.858;2023-09-12T02:41:38;10.97;;;10.07;;
1000;SDS011;489;47.806;12.858;2023-09-12T02:43:40;12.23;;;10.90;;
1000;SDS011;489;47.806;12.858;2023-09-12T02:45:42;11.10;;;10.10;;
1000;SDS011;489;47.806;12.858;2023-09-12T02:47:44;11.13;;;10.00;;
1000;SDS011;489;47.806;12.858;2023-09-12T02:49:48;11.10;;;10.10;;
1000;SDS011;489;47.806;12.858;2023-09-12T02:51:50;11.20;;;10.20;;
1000;SDS011;489;47.806;12.858;2023-09-12T02:53:52;11.03;;;10.07;;
1000;SDS011;489;47.806;12.858;2023-09-12T02:55:54;12.07;;;10.97;;
1000;SDS011;489;47.806;12.858;2023-09-12T02:57:55;11.77;;;10.60;;
1000;SDS011;489;47.806;12.858;2023-09-12T02:59:57;11.00;;;10.10;;
1000;SDS011;489;47.806;12.858;2023-09-12T03:01:59;11.63;;;10.53;;
1000;SDS011;489;47.806;12.858;2023-09-12T03:04:01;10.83;;;9.93;;
1000;SDS011;489;47.806;12.858;2023-09-12T03:06:06;11.00;;;10.07;;
1000;SDS011;489;47.806;12.858;2023-09-12T03:08:08;11.40;;;10.30;;
1000;SDS011;489;47.806;12.858;2023-09-12T03:10:31;11.97;;;10.93;;
1000;SDS011;489;47.806;12.858;2023-09-12T03:12:33;11.10;;;10.00;;
1000;SDS011;489;47.806;12.858;2023-09-12T03:14:37;12.30;;;11.13;;
1000;SDS011;489;47.806;12.858;2023-09-12T03:16:39;10.57;;;9.57;;
1000;SDS011;489;47.806;12.858;2023-09-12T03:18:40;11.90;;;10.80;;
1000;SDS011;489;47.806;12.858;2023-09-12T03:20:42;11.80;;;10.80;;
1000;SDS011;489;47.806;12.858;2023-09-12T03:22:45;13.27;;;11.90;;
1000;SDS011;489;47.806;12.858;2023-09-12T03:24:47;10.57;;;9.67;;
1000;SDS011;489;47.806;12.858;2023-09-12T03:26:49;11.60;;;10.70;;
1000;SDS011;489;47.806;12.858;2023-09-12T03:28:50;10.73;;;9.73;;
1000;SDS011;489;47.806;12.858;2023-09-12T03:30:52;11.40;;;10.40;;
1000;SDS011;489;47.806;12.858;2023-09-12T03:33:05;10.67;;;9.57;;
1000;SDS011;489;47.806;12.858;2023-09-12T03:35:08;10.23;;;9.33;;
1000;SDS011;489;47.806;12.858;2023-09-12T03:37:10;10.23;;;9.33;;
1000;SDS011;489;47.806;12.858;2023-09-12T03:39:13;10.13;;;9.23;;
1000;SDS011;489;47.806;12.858;2023-09-12T03:41:15;10.17;;;9.27;;
1000;SDS011;489;47.806;12.858;2023-09-12T03:43:17;10.40;;;9.50;;
1000;SDS011;489;47.806;12.858;2023-09-12T03:45:20;10.13;;;9.30;;
1000;SDS011;489;47.806;12.858;2023-09-12T03:47:22;10.03;;;9.17;;
1000;SDS011;489;47.806;12.858;2023-09-12T03:49:24;10.80;;;9.77;;
1000;SDS011;489;47.806;12.858;2023-09-12T03:51:28;10.37;;;9.57;;
1000;SDS011;489;47.806;12.858;2023-09-12T03:53:31;11.00;;;10.00;;
1000;SDS011;489;47.806;12.858;2023-09-12T03:55:34;10.57;;;9.67;;
1000;SDS011;489;47.806;12.858;2023-09-12T03:57:37;10.10;;;9.23;;
1000;SDS011;489;47.806;12.858;2023-09-12T03:59:39;9.30;;;8.40;;
1000;SDS011;489;47.806;12.858;2023-09-12T04:01:41;10.77;;;9.77;;
1000;SDS011;489;47.806;12.858;2023-09-12T04:03:41;10.87;;;9.87;;
1000;SDS011;489;47.806;12.858;2023-09-12T04:05:45;10.23;;;9.33;;
1000;SDS011;489;47.806;12.858;2023-09-12T04:07:48;9.70;;;8.80;;
1000;SDS011;489;47.806;12.858;2023-09-12T04:09:50;10.60;;;9.50;;
1000;SDS011;489;47.806;12.858;2023-09-12T04:11:52;10.37;;;9.47;;
1000;SDS011;489;47.806;12.858;2023-09-12T04:13:55;10.20;;;9.40;;
1000;SDS011;489;47.806;12.858;2023-09-12T04:15:57;10.83;;;9.93;;
1000;SDS011;489;47.806;12.858;2023-09-12T04:17:59;10.43;;;9.50;;
1000;SDS011;489;47.806;12.858;2023-09-12T04:20:00;10.57;;;9.47;;
1000;SDS011;489;47.806;12.858;2023-09-12T04:22:02;10.57;;;9.57;;
1000;SDS011;489;47.806;12.858;2023-09-12T04:24:05;10.13;;;9.30;;
1000;SDS011;489;47.806;12.858;2023-09-12T04:26:08;10.97;;;9.97;;
1000;SDS011;489;47.806;12.858;2023-09-12T04:28:12;10.17;;;9.27;;
1000;SDS011;489;47.806;12.858;2023-09-12T04:30:15;10.00;;;9.10;;
1000;SDS011;489;47.806;12.858;2023-09-12T04:32:17;10.97;;;9.97;;
1000;SDS011;489;47.806;12.858;2023-09-12T04:34:24;10.83;;;9.83;;
1000;SDS011;489;47.806;12.858;2023-09-12T04:36:26;11.50;;;10.50;;
1000;SDS011;489;47.806;12.858;2023-09-12T04:38:28;10.63;;;9.63;;
1000;SDS011;489;47.806;12.858;2023-09-12T04:40:30;12.17;;;11.10;;
1000;SDS011;489;47.806;12.858;2023-09-12T04:42:32;16.13;;;14.60;;
1000;SDS011;489;47.806;12.858;2023-09-12T04:44:35;15.83;;;13.57;;
1000;SDS011;489;47.806;12.858;2023-09-12T04:46:37;13.87;;;12.57;;
1000;SDS011;489;47.806;12.858;2023-09-12T04:48:40;12.90;;;11.70;;
1000;SDS011;489;47.806;12.858;2023-09-12T04:50:41;13.50;;;12.23;;
1000;SDS011;489;47.806;12.858;2023-09-12T04:52:44;13.97;;;12.50;;
1000;SDS011;489;47.806;12.858;2023-09-12T04:54:46;14.03;;;12.70;;
1000;SDS011;489;47.806;12.858;2023-09-12T04:56:48;13.70;;;12.40;;
1000;SDS011;489;47.806;12.858;2023-09-12T04:58:50;13.40;;;12.10;;
1000;SDS011;489;47.806;12.858;2023-09-12T05:00:55;13.07;;;11.77;;
1000;SDS011;489;47.806;12.858;2023-09-12T05:02:57;13.00;;;11.70;;
1000;SDS011;489;47.806;12.858;2023-09-12T05:04:59;12.57;;;10.97;;
1000;SDS011;489;47.806;12.858;2023-09-12T05:07:02;12.03;;;10.93;;
1000;SDS011;489;47.806;12.858;2023-09-12T05:09:03;12.17;;;10.97;;
1000;SDS011;489;47.806;12.858;2023-09-12T05:11:06;16.30;;;14.70;;
1000;SDS011;489;47.806;12.858;2023-09-12T05:13:08;14.07;;;12.77;;
1000;SDS011;489;47.806;12.858;2023-09-12T05:15:10;12.90;;;11.77;;
1000;SDS011;489;47.806;12.858;2023-09-12T05:17:13;12.23;;;11.13;;
1000;SDS011;489;47.806;12.858;2023-09-12T05:19:14;11.40;;;10.40;;
1000;SDS011;489;47.806;12.858;2023-09-12T05:21:17;11.83;;;10.83;;
1000;SDS011;489;47.806;12.858;2023-09-12T05:23:19;11.13;;;10.13;;
1000;SDS011;489;47.806;12.858;2023-09-12T05:25:21;11.73;;;10.57;;
1000;SDS011;489;47.806;12.858;2023-09-12T05:27:23;12.27;;;11.07;;
1000;SDS011;489;47.806;12.858;2023-09-12T05:29:25;11.70;;;10.60;;
1000;SDS011;489;47.806;12.858;2023-09-12T05:31:27;11.90;;;10.80;;
1000;SDS011;489;47.806;12.858;2023-09-12T05:33:30;10.63;;;9.70;;
1000;SDS011;489;47.806;12.858;2023-09-12T05:35:33;11.40;;;10.40;;
1000;SDS011;489;47.806;12.858;2023-09-12T05:37:35;11.33;;;10.33;;
1000;SDS011;489;47.806;12.858;2023-09-12T05:39:37;10.33;;;9.37;;
1000;SDS011;489;47.806;12.858;2023-09-12T05:41:39;10.73;;;9.73;;
1000;SDS011;489;47.806;12.858;2023-09-12T05:43:41;10.70;;;9.80;;
1000;SDS011;489;47.806;12.858;2023-09-12T05:45:43;10.07;;;9.13;;
1000;SDS011;489;47.806;12.858;2023-09-12T05:47:45;10.57;;;9.57;;
1000;SDS011;489;47.806;12.858;2023-09-12T05:49:48;10.43;;;9.53;;
1000;SDS011;489;47.806;12.858;2023-09-12T05:51:51;13.43;;;10.80;;
1000;SDS011;489;47.806;12.858;2023-09-12T05:53:52;12.50;;;11.30;;
1000;SDS011;489;47.806;12.858;2023-09-12T05:55:55;12.57;;;10.43;;
1000;SDS011;489;47.806;12.858;2023-09-12T05:57:57;12.50;;;11.30;;
1000;SDS011;489;47.806;12.858;2023-09-12T06:00:00;12.80;;;11.60;;
1000;SDS011;489;47.806;12.858;2023-09-12T06:02:12;12.20;;;11.10;;
1000;SDS011;489;47.806;12.858;2023-09-12T06:04:14;12.57;;;11.37;;
1000;SDS011;489;47.806;12.858;2023-09-12T06:06:16;11.77;;;10.37;;
1000;SDS011;489;47.806;12.858;2023-09-12T06:08:19;13.33;;;12.13;;
1000;SDS011;489;47.806;12.858;2023-09-12T06:10:21;12.50;;;11.40;;
1000;SDS011;489;47.806;12.858;2023-09-12T06:12:23;11.60;;;10.60;;
1000;SDS011;489;47.806;12.858;2023-09-12T06:14:25;12.27;;;11.17;;
1000;SDS011;489;47.806;12.858;2023-09-12T06:16:27;11.50;;;10.50;;
1000;SDS011;489;47.806;12.858;2023-09-12T06:18:30;11.50;;;10.40;;
1000;SDS011;489;47.806;12.858;2023-09-12T06:20:31;11.30;;;10.17;;
1000;SDS011;489;47.806;12.858;2023-09-12T06:22:38;11.50;;;10.40;;
1000;SDS011;489;47.806;12.858;2023-09-12T06:24:40;11.20;;;10.10;;
1000;SDS011;489;47.806;12.858;2023-09-12T06:26:41;12.00;;;10.90;;
1000;SDS011;489;47.806;12.858;2023-09-12T06:28:44;11.90;;;10.80;;
1000;SDS011;489;47.806;12.858;2023-09-12T06:30:45;11.50;;;10.40;;
1000;SDS011;489;47.806;12.858;2023-09-12T06:32:49;11.77;;;10.60;;
1000;SDS011;489;47.806;12.858;2023-09-12T06:34:51;12.23;;;11.10;;
1000;SDS011;489;47.806;12.858;2023-09-12T06:36:53;11.10;;;10.10;;
1000;SDS011;489;47.806;12.858;2023-09-12T06:38:56;11.50;;;10.50;;
1000;SDS011;489;47.806;12.858;2023-09-12T06:40:59;13.53;;;12.10;;
1000;SDS011;489;47.806;12.858;2023-09-12T06:43:02;12.10;;;11.00;;
1000;SDS011;489;47.806;12.858;2023-09-12T06:45:04;12.23;;;11.10;;
1000;SDS011;489;47.806;12.858;2023-09-12T06:47:07;12.47;;;11.37;;
1000;SDS011;489;47.806;12.858;2023-09-12T06:49:10;11.97;;;10.80;;
1000;SDS011;489;47.806;12.858;2023-09-12T06:51:11;12.30;;;11.10;;
1000;SDS011;489;47.806;12.858;2023-09-12T06:53:13;12.00;;;10.80;;
1000;SDS011;489;47.806;12.858;2023-09-12T06:55:17;12.50;;;11.30;;
1000;SDS011;489;47.806;12.858;2023-09-12T06:57:19;11.93;;;10.83;;
1000;SDS011;489;47.806;12.858;2023-09-12T06:59:21;12.00;;;10.80;;
1000;SDS011;489;47.806;12.858;2023-09-12T07:01:23;11.50;;;10.57;;
1000;SDS011;489;47.806;12.858;2023-09-12T07:03:25;11.03;;;10.03;;
1000;SDS011;489;47.806;12.858;2023-09-12T07:05:27;12.10;;;10.90;;
1000;SDS011;489;47.806;12.858;2023-09-12T07:07:29;11.70;;;10.70;;
1000;SDS011;489;47.806;12.858;2023-09-12T07:09:31;12.77;;;11.57;;
1000;SDS011;489;47.806;12.858;2023-09-12T07:11:35;12.40;;;11.20;;
1000;SDS011;489;47.806;12.858;2023-09-12T07:13:36;12.03;;;11.07;;
1000;SDS011;489;47.806;12.858;2023-09-12T07:15:38;11.33;;;10.33;;
1000;SDS011;489;47.806;12.858;2023-09-12T07:17:40;11.70;;;10.60;;
1000;SDS011;489;47.806;12.858;2023-09-12T07:19:42;10.97;;;10.07;;
1000;SDS011;489;47.806;12.858;2023-09-12T07:21:44;11.77;;;10.77;;
1000;SDS011;489;47.806;12.858;2023-09-12T07:23:47;12.27;;;11.07;;
1000;SDS011;489;47.806;12.858;2023-09-12T07:25:50;13.43;;;12.23;;
1000;SDS011;489;47.806;12.858;2023-09-12T07:27:54;12.40;;;11.37;;
1000;SDS011;489;47.806;12.858;2023-09-12T07:29:56;10.03;;;9.23;;
1000;SDS011;489;47.806;12.858;2023-09-12T07:31:57;11.47;;;10.47;;
1000;SDS011;489;47.806;12.858;2023-09-12T07:33:59;11.50;;;10.47;;
1000;SDS011;489;47.806;12.858;2023-09-12T07:36:02;12.57;;;11.47;;
1000;SDS011;489;47.806;12.858;2023-09-12T07:38:05;12.23;;;11.23;;
1000;SDS011;489;47.806;12.858;2023-09-12T07:40:07;12.40;;;11.30;;
1000;SDS011;489;47.806;12.858;2023-09-12T07:42:10;12.00;;;10.93;;
1000;SDS011;489;47.806;12.858;2023-09-12T07:44:13;12.90;;;11.70;;
1000;SDS011;489;47.806;12.858;2023-09-12T07:46:16;12.50;;;11.33;;
1000;SDS011;489;47.806;12.858;2023-09-12T07:48:18;11.37;;;10.43;;
1000;SDS011;489;47.806;12.858;2023-09-12T07:50:20;11.63;;;10.63;;
1000;SDS011;489;47.806;12.858;2023-09-12T07:52:22;12.83;;;11.27;;
1000;SDS011;489;47.806;12.858;2023-09-12T07:54:24;11.53;;;10.63;;
1000;SDS011;489;47.806;12.858;2023-09-12T07:56:26;12.00;;;11.00;;
1000;SDS011;489;47.806;12.858;2023-09-12T07:58:28;11.33;;;10.30;;
1000;SDS011;489;47.806;12.858;2023-09-12T08:00:31;12.90;;;11.70;;
1000;SDS011;489;47.806;12.858;2023-09-12T08:02:33;12.40;;;11.30;;
1000;SDS011;489;47.806;12.858;2023-09-12T08:04:35;12.33;;;11.17;;
1000;SDS011;489;47.806;12.858;2023-09-12T08:06:37;12.63;;;11.50;;
1000;SDS011;489;47.806;12.858;2023-09-12T08:08:39;12.77;;;11.67;;
1000;SDS011;489;47.806;12.858;2023-09-12T08:10:41;11.80;;;10.73;;
1000;SDS011;489;47.806;12.858;2023-09-12T08:12:43;11.70;;;10.63;;
1000;SDS011;489;47.806;12.858;2023-09-12T08:14:45;11.90;;;10.90;;
1000;SDS011;489;47.806;12.858;2023-09-12T08:16:48;12.20;;;11.20;;
1000;SDS011;489;47.806;12.858;2023-09-12T08:18:50;11.73;;;10.60;;
1000;SDS011;489;47.806;12.858;2023-09-12T08:20:52;12.53;;;11.43;;
1000;SDS011;489;47.806;12.858;2023-09-12T08:22:54;12.13;;;11.13;;
1000;SDS011;489;47.806;12.858;2023-09-12T08:24:56;12.37;;;11.37;;
1000;SDS011;489;47.806;12.858;2023-09-12T08:26:58;13.10;;;12.00;;
1000;SDS011;489;47.806;12.858;2023-09-12T08:29:00;11.70;;;10.70;;
1000;SDS011;489;47.806;12.858;2023-09-12T08:31:02;12.50;;;11.40;;
1000;SDS011;489;47.806;12.858;2023-09-12T08:33:06;12.07;;;11.07;;
1000;SDS011;489;47.806;12.858;2023-09-12T08:35:08;11.50;;;10.60;;
1000;SDS011;489;47.806;12.858;2023-09-12T08:37:10;12.87;;;11.67;;
1000;SDS011;489;47.806;12.858;2023-09-12T08:39:12;11.87;;;10.77;;
1000;SDS011;489;47.806;12.858;2023-09-12T08:41:15;12.53;;;11.37;;
1000;SDS011;489;47.806;12.858;2023-09-12T08:43:18;12.63;;;11.53;;
1000;SDS011;489;47.806;12.858;2023-09-12T08:45:20;12.57;;;11.47;;
1000;SDS011;489;47.806;12.858;2023-09-12T08:47:23;11.73;;;10.73;;
1000;SDS011;489;47.806;12.858;2023-09-12T08:49:28;12.00;;;11.00;;
1000;SDS011;489;47.806;12.858;2023-09-12T08:51:31;12.87;;;11.87;;
1000;SDS011;489;47.806;12.858;2023-09-12T08:53:56;12.63;;;11.43;;
1000;SDS011;489;47.806;12.858;2023-09-12T08:55:58;12.13;;;11.00;;
1000;SDS011;489;47.806;12.858;2023-09-12T08:58:04;12.73;;;11.63;;
1000;SDS011;489;47.806;12.858;2023-09-12T09:00:09;12.37;;;11.27;;
1000;SDS011;489;47.806;12.858;2023-09-12T09:02:13;12.20;;;11.13;;
1000;SDS011;489;47.806;12.858;2023-09-12T09:04:16;13.02;;;11.82;;
1000;SDS011;489;47.806;12.858;2023-09-12T09:06:20;13.15;;;11.85;;
1000;SDS011;489;47.806;12.858;2023-09-12T09:08:22;12.90;;;11.77;;
1000;SDS011;489;47.806;12.858;2023-09-12T09:10:25;13.77;;;12.37;;
1000;SDS011;489;47.806;12.858;2023-09-12T09:12:32;13.45;;;12.23;;
1000;SDS011;489;47.806;12.858;2023-09-12T09:14:34;11.73;;;10.73;;
1000;SDS011;489;47.806;12.858;2023-09-12T09:16:36;12.75;;;11.75;;
1000;SDS011;489;47.806;12.858;2023-09-12T09:18:54;11.73;;;10.63;;
1000;SDS011;489;47.806;12.858;2023-09-12T09:21:02;13.02;;;11.82;;
1000;SDS011;489;47.806;12.858;2023-09-12T09:23:19;12.52;;;11.43;;
1000;SDS011;489;47.806;12.858;2023-09-12T09:25:24;12.50;;;11.50;;
1000;SDS011;489;47.806;12.858;2023-09-12T09:27:33;11.85;;;10.85;;
1000;SDS011;489;47.806;12.858;2023-09-12T09:29:45;12.90;;;11.90;;
1000;SDS011;489;47.806;12.858;2023-09-12T09:31:49;13.10;;;12.00;;
1000;SDS011;489;47.806;12.858;2023-09-12T09:33:52;12.52;;;11.43;;
1000;SDS011;489;47.806;12.858;2023-09-12T09:35:54;12.50;;;11.50;;
1000;SDS011;489;47.806;12.858;2023-09-12T09:38:07;12.57;;;11.55;;
1000;SDS011;489;47.806;12.858;2023-09-12T09:40:11;13.48;;;12.27;;
1000;SDS011;489;47.806;12.858;2023-09-12T09:42:12;12.25;;;11.30;;
1000;SDS011;489;47.806;12.858;2023-09-12T09:44:14;11.73;;;10.73;;
1000;SDS011;489;47.806;12.858;2023-09-12T09:46:16;13.38;;;12.10;;
1000;SDS011;489;47.806;12.858;2023-09-12T09:48:22;13.23;;;11.85;;
1000;SDS011;489;47.806;12.858;2023-09-12T09:50:24;11.73;;;10.73;;
1000;SDS011;489;47.806;12.858;2023-09-12T09:52:27;12.45;;;11.43;;
1000;SDS011;489;47.806;12.858;2023-09-12T09:54:29;12.65;;;11.55;;
1000;SDS011;489;47.806;12.858;2023-09-12T09:56:32;13.05;;;12.05;;
1000;SDS011;489;47.806;12.858;2023-09-12T09:58:46;12.45;;;11.45;;
1000;SDS011;489;47.806;12.858;2023-09-12T10:00:49;11.82;;;10.93;;
1000;SDS011;489;47.806;12.858;2023-09-12T10:02:51;12.82;;;11.75;;
1000;SDS011;489;47.806;12.858;2023-09-12T10:04:53;13.55;;;12.35;;
1000;SDS011;489;47.806;12.858;2023-09-12T10:06:56;13.65;;;12.38;;
1000;SDS011;489;47.806;12.858;2023-09-12T10:08:58;12.48;;;11.48;;
1000;SDS011;489;47.806;12.858;2023-09-12T10:11:02;12.73;;;11.63;;
1000;SDS011;489;47.806;12.858;2023-09-12T10:13:06;12.48;;;11.15;;
1000;SDS011;489;47.806;12.858;2023-09-12T10:15:08;13.13;;;12.02;;
1000;SDS011;489;47.806;12.858;2023-09-12T10:17:11;12.10;;;11.10;;
1000;SDS011;489;47.806;12.858;2023-09-12T10:19:15;12.00;;;11.10;;
1000;SDS011;489;47.806;12.858;2023-09-12T10:21:21;12.23;;;11.18;;
1000;SDS011;489;47.806;12.858;2023-09-12T10:23:27;12.65;;;11.65;;
1000;SDS011;489;47.806;12.858;2023-09-12T10:25:36;12.13;;;10.95;;
1000;SDS011;489;47.806;12.858;2023-09-12T10:27:39;12.00;;;11.10;;
1000;SDS011;489;47.806;12.858;2023-09-12T10:29:43;12.40;;;11.30;;
1000;SDS011;489;47.806;12.858;2023-09-12T10:31:48;11.95;;;11.05;;
1000;SDS011;489;47.806;12.858;2023-09-12T10:33:50;12.88;;;11.60;;
1000;SDS011;489;47.806;12.858;2023-09-12T10:35:53;12.35;;;11.35;;
1000;SDS011;489;47.806;12.858;2023-09-12T10:37:55;12.02;;;11.02;;
1000;SDS011;489;47.806;12.858;2023-09-12T10:40:01;11.73;;;10.70;;
1000;SDS011;489;47.806;12.858;2023-09-12T10:42:06;12.52;;;11.52;;
1000;SDS011;489;47.806;12.858;2023-09-12T10:44:09;12.25;;;11.18;;
1000;SDS011;489;47.806;12.858;2023-09-12T10:46:13;12.10;;;11.20;;
1000;SDS011;489;47.806;12.858;2023-09-12T10:48:15;11.65;;;10.68;;
1000;SDS011;489;47.806;12.858;2023-09-12T10:50:17;11.65;;;10.75;;
1000;SDS011;489;47.806;12.858;2023-09-12T10:52:24;11.65;;;10.75;;
1000;SDS011;489;47.806;12.858;2023-09-12T10:54:35;11.52;;;10.70;;
1000;SDS011;489;47.806;12.858;2023-09-12T10:56:38;11.20;;;10.30;;
1000;SDS011;489;47.806;12.858;2023-09-12T11:01:37;10.43;;;9.63;;
1000;SDS011;489;47.806;12.858;2023-09-12T11:03:40;12.23;;;11.23;;
1000;SDS011;489;47.806;12.858;2023-09-12T11:05:50;11.50;;;10.50;;
1000;SDS011;489;47.806;12.858;2023-09-12T11:07:55;11.45;;;10.57;;
1000;SDS011;489;47.806;12.858;2023-09-12T11:12:34;11.73;;;10.75;;
1000;SDS011;489;47.806;12.858;2023-09-12T11:14:36;11.68;;;10.73;;
1000;SDS011;489;47.806;12.858;2023-09-12T11:17:23;10.80;;;10.00;;
1000;SDS011;489;47.806;12.858;2023-09-12T11:19:25;11.73;;;10.82;;
1000;SDS011;489;47.806;12.858;2023-09-12T11:21:31;11.55;;;10.65;;
1000;SDS011;489;47.806;12.858;2023-09-12T11:23:32;10.80;;;9.90;;
1000;SDS011;489;47.806;12.858;2023-09-12T11:25:36;11.55;;;10.55;;
1000;SDS011;489;47.806;12.858;2023-09-12T11:27:44;11.15;;;10.25;;
1000;SDS011;489;47.806;12.858;2023-09-12T11:29:47;10.88;;;9.98;;
1000;SDS011;489;47.806;12.858;2023-09-12T11:31:55;10.80;;;9.98;;
1000;SDS011;489;47.806;12.858;2023-09-12T11:34:01;10.35;;;9.30;;
1000;SDS011;489;47.806;12.858;2023-09-12T11:36:04;9.98;;;9.27;;
1000;SDS011;489;47.806;12.858;2023-09-12T11:38:09;11.05;;;10.15;;
1000;SDS011;489;47.806;12.858;2023-09-12T11:40:22;9.73;;;8.85;;
1000;SDS011;489;47.806;12.858;2023-09-12T11:42:25;10.05;;;9.35;;
1000;SDS011;489;47.806;12.858;2023-09-12T11:44:28;9.68;;;8.82;;
1000;SDS011;489;47.806;12.858;2023-09-12T11:46:31;10.77;;;9.82;;
1000;SDS011;489;47.806;12.858;2023-09-12T11:48:35;10.45;;;9.65;;
1000;SDS011;489;47.806;12.858;2023-09-12T11:50:39;10.60;;;9.80;;
1000;SDS011;489;47.806;12.858;2023-09-12T11:52:41;10.60;;;9.77;;
1000;SDS011;489;47.806;12.858;2023-09-12T11:54:44;10.25;;;9.55;;
1000;SDS011;489;47.806;12.858;2023-09-12T11:56:47;10.27;;;9.45;;
1000;SDS011;489;47.806;12.858;2023-09-12T11:58:49;10.68;;;9.75;;
1000;SDS011;489;47.806;12.858;2023-09-12T12:00:51;10.55;;;9.75;;
1000;SDS011;489;47.806;12.858;2023-09-12T12:02:56;10.45;;;9.55;;
1000;SDS011;489;47.806;12.858;2023-09-12T12:05:00;10.38;;;9.52;;
1000;SDS011;489;47.806;12.858;2023-09-12T12:07:05;10.32;;;9.60;;
1000;SDS011;489;47.806;12.858;2023-09-12T12:09:06;10.73;;;9.82;;
1000;SDS011;489;47.806;12.858;2023-09-12T12:11:09;10.23;;;9.38;;
1000;SDS011;489;47.806;12.858;2023-09-12T12:13:11;9.88;;;9.02;;
1000;SDS011;489;47.806;12.858;2023-09-12T12:15:17;10.38;;;9.63;;
1000;SDS011;489;47.806;12.858;2023-09-12T12:17:19;10.45;;;9.60;;
1000;SDS011;489;47.806;12.858;2023-09-12T12:19:21;10.85;;;10.05;;
1000;SDS011;489;47.806;12.858;2023-09-12T12:21:24;11.43;;;10.52;;
1000;SDS011;489;47.806;12.858;2023-09-12T12:23:28;9.80;;;8.80;;
1000;SDS011;489;47.806;12.858;2023-09-12T12:25:31;10.20;;;9.30;;
1000;SDS011;489;47.806;12.858;2023-09-12T12:27:37;10.90;;;10.00;;
1000;SDS011;489;47.806;12.858;2023-09-12T12:29:39;11.25;;;10.25;;
1000;SDS011;489;47.806;12.858;2023-09-12T12:31:42;10.48;;;9.65;;
1000;SDS011;489;47.806;12.858;2023-09-12T12:33:47;10.48;;;9.68;;
1000;SDS011;489;47.806;12.858;2023-09-12T12:35:49;10.93;;;10.07;;